createdAt,value
2023-10-15T00:00:33.752Z,86661.60
2023-10-15T00:03:03.528Z,86661.40
2023-10-15T00:05:33.529Z,86657.80
2023-10-15T00:08:03.433Z,86656.20
2023-10-15T00:10:33.064Z,86654.80
2023-10-15T00:13:03.005Z,86660.60
2023-10-15T00:15:33.774Z,86660.40
2023-10-15T00:26:28.863Z,86667.20
2023-10-15T00:28:58.573Z,86671.00
2023-10-15T00:31:31.441Z,86669.20
2023-10-15T00:34:00.747Z,86664.40
2023-10-15T00:36:30.711Z,86661.80
2023-10-15T00:38:59.946Z,86659.80
2023-10-15T00:41:29.826Z,86668.40
2023-10-15T00:44:01.624Z,86676.00
2023-10-15T00:46:40.059Z,86678.00
2023-10-15T00:49:17.322Z,86681.00
2023-10-15T00:51:48.696Z,86689.00
2023-10-15T00:54:19.149Z,86685.00
2023-10-15T00:56:52.117Z,86693.80
2023-10-15T00:59:23.296Z,86693.60
2023-10-15T01:02:04.906Z,86692.60
2023-10-15T01:04:38.435Z,86698.60
2023-10-15T01:07:43.665Z,86698.20
2023-10-15T01:10:39.433Z,86698.80
2023-10-15T01:13:24.201Z,86702.80
2023-10-15T01:16:02.226Z,86703.00
2023-10-15T01:18:33.660Z,86698.60
2023-10-15T01:21:06.323Z,86697.60
2023-10-15T01:24:02.086Z,86694.60
2023-10-15T01:26:41.192Z,86699.60
2023-10-15T01:29:17.771Z,86702.60
2023-10-15T01:31:54.007Z,86704.00
2023-10-15T01:34:24.433Z,86703.20
2023-10-15T01:37:02.484Z,86698.40
2023-10-15T01:39:42.219Z,86698.60
2023-10-15T01:42:23.619Z,86697.00
2023-10-15T01:44:53.386Z,86695.60
2023-10-15T01:47:30.787Z,86690.60
2023-10-15T01:50:00.447Z,86693.80
2023-10-15T01:52:34.764Z,86697.80
2023-10-15T01:55:06.390Z,86699.80
2023-10-15T01:57:38.885Z,86706.60
2023-10-15T02:00:19.315Z,86707.60
2023-10-15T02:02:50.663Z,86709.60
2023-10-15T02:05:40.516Z,86714.80
2023-10-15T02:08:41.469Z,86709.20
2023-10-15T02:11:23.791Z,86708.40
2023-10-15T02:13:59.261Z,86714.20
2023-10-15T02:16:32.124Z,86718.80
2023-10-15T02:19:02.021Z,86715.60
2023-10-15T02:34:44.833Z,86721.00
2023-10-15T02:37:19.627Z,86726.40
2023-10-15T02:39:55.716Z,86727.40
2023-10-15T02:42:38.689Z,86726.20
2023-10-15T02:45:09.160Z,86736.00
2023-10-15T02:47:44.710Z,86734.80
2023-10-15T02:50:31.563Z,86737.80
2023-10-15T02:53:07.410Z,86740.40
2023-10-15T02:56:01.147Z,86730.80
2023-10-15T02:58:31.005Z,86729.60
2023-10-15T03:01:08.958Z,86729.80
2023-10-15T03:03:39.993Z,86733.60
2023-10-15T03:06:15.271Z,86741.80
2023-10-15T03:08:50.449Z,86738.60
2023-10-15T03:11:24.008Z,86735.80
2023-10-15T03:14:00.384Z,86734.40
2023-10-15T03:16:35.541Z,86734.80
2023-10-15T03:19:21.983Z,86736.20
2023-10-15T03:21:58.413Z,86734.60
2023-10-15T03:24:29.840Z,86737.80
2023-10-15T03:27:05.327Z,86735.60
2023-10-15T03:31:56.628Z,86731.20
2023-10-15T03:34:26.352Z,86730.80
2023-10-15T03:37:05.331Z,86734.00
2023-10-15T03:39:35.149Z,86732.60
2023-10-15T03:42:20.579Z,86732.20
2023-10-15T03:44:53.340Z,86737.60
2023-10-15T03:47:25.012Z,86738.00
2023-10-15T03:49:54.377Z,86743.20
2023-10-15T03:52:25.084Z,86745.80
2023-10-15T03:54:58.123Z,86747.20
2023-10-15T03:57:30.459Z,86748.80
2023-10-15T04:00:38.080Z,86751.40
2023-10-15T04:03:21.097Z,86745.00
2023-10-15T04:06:08.220Z,86754.00
2023-10-15T04:08:41.878Z,86752.40
2023-10-15T04:11:13.435Z,86757.40
2023-10-15T04:13:47.503Z,86757.00
2023-10-15T04:16:16.745Z,86762.60
2023-10-15T04:18:49.428Z,86763.60
2023-10-15T04:21:22.479Z,86764.60
2023-10-15T04:23:54.764Z,86762.80
2023-10-15T04:26:29.546Z,86768.40
2023-10-15T04:29:46.314Z,86773.80
2023-10-15T04:32:19.883Z,86774.20
2023-10-15T04:34:49.125Z,86771.00
2023-10-15T04:37:23.001Z,86767.40
2023-10-15T04:40:10.652Z,86771.00
2023-10-15T04:54:09.344Z,86765.40
2023-10-15T04:56:39.455Z,86767.40
2023-10-15T04:59:12.080Z,86770.40
2023-10-15T05:05:11.068Z,86777.40
2023-10-15T05:07:40.893Z,86776.80
2023-10-15T05:10:13.889Z,86774.20
2023-10-15T05:12:42.911Z,86769.40
2023-10-15T05:15:15.571Z,86766.60
2023-10-15T05:17:45.980Z,86764.60
2023-10-15T05:20:16.084Z,86763.40
2023-10-15T05:23:05.350Z,86759.40
2023-10-15T05:25:35.027Z,86761.80
2023-10-15T05:28:05.038Z,86759.60
2023-10-15T05:30:35.768Z,86757.80
2023-10-15T05:33:06.678Z,86759.60
2023-10-15T05:35:40.161Z,86760.40
2023-10-15T05:38:10.692Z,86756.60
2023-10-15T05:40:40.797Z,86762.60
2023-10-15T05:43:10.470Z,86760.80
2023-10-15T05:45:39.908Z,86757.40
2023-10-15T05:48:09.895Z,86756.80
2023-10-15T05:50:40.223Z,86754.80
2023-10-15T05:53:15.317Z,86760.20
2023-10-15T05:55:46.938Z,86753.20
2023-10-15T05:58:17.113Z,86754.80
2023-10-15T06:00:46.148Z,86749.40
2023-10-15T06:03:16.442Z,86755.00
2023-10-15T06:05:45.954Z,86753.20
2023-10-15T06:08:17.834Z,86747.40
2023-10-15T06:10:47.789Z,86750.20
2023-10-15T06:13:17.422Z,86757.60
2023-10-15T06:15:48.050Z,86752.60
2023-10-15T06:18:20.180Z,86758.80
2023-10-15T06:20:50.457Z,86756.60
2023-10-15T06:23:26.077Z,86752.60
2023-10-15T06:25:55.826Z,86749.60
2023-10-15T06:28:25.288Z,86754.60
2023-10-15T06:30:56.624Z,86748.60
2023-10-15T06:33:26.746Z,86748.00
2023-10-15T06:35:57.653Z,86748.80
2023-10-15T06:38:29.315Z,86751.00
2023-10-15T06:40:58.911Z,86751.40
2023-10-15T06:43:28.191Z,86753.00
2023-10-15T06:46:10.363Z,86758.20
2023-10-15T06:48:43.136Z,86754.80
2023-10-15T06:51:46.768Z,86759.20
2023-10-15T06:54:26.503Z,86761.00
2023-10-15T06:56:56.501Z,86768.40
2023-10-15T06:59:25.262Z,86767.40
2023-10-15T07:01:54.191Z,86771.40
2023-10-15T07:04:31.308Z,86775.40
2023-10-15T07:07:19.546Z,86775.80
2023-10-15T07:09:48.869Z,86768.60
2023-10-15T07:12:17.958Z,86764.00
2023-10-15T07:14:46.996Z,86764.60
2023-10-15T07:17:20.043Z,86772.40
2023-10-15T07:19:49.330Z,86773.60
2023-10-15T07:22:20.775Z,86766.20
2023-10-15T07:24:50.066Z,86763.00
2023-10-15T07:27:19.010Z,86768.80
2023-10-15T07:29:52.651Z,86766.80
2023-10-15T07:32:21.694Z,86772.40
2023-10-15T07:34:55.165Z,86776.20
2023-10-15T07:37:24.679Z,86770.00
2023-10-15T07:39:53.745Z,86769.20
2023-10-15T07:42:31.708Z,86771.80
2023-10-15T07:45:02.065Z,86773.20
2023-10-15T07:47:32.113Z,86778.00
2023-10-15T07:50:01.396Z,86783.20
2023-10-15T07:52:30.797Z,86781.60
2023-10-15T07:54:59.816Z,86777.20
2023-10-15T07:57:30.152Z,86782.20
2023-10-15T08:00:00.393Z,86783.60
2023-10-15T08:02:30.465Z,86790.00
2023-10-15T08:04:59.525Z,86791.00
2023-10-15T08:07:30.583Z,86800.20
2023-10-15T08:10:00.060Z,86802.40
2023-10-15T08:12:30.345Z,86805.60
2023-10-15T08:15:02.192Z,86804.80
2023-10-15T08:17:33.468Z,86800.80
2023-10-15T08:20:02.992Z,86801.40
2023-10-15T08:22:31.946Z,86797.80
2023-10-15T08:25:01.810Z,86802.60
2023-10-15T08:27:30.657Z,86803.00
2023-10-15T08:30:00.735Z,86804.40
2023-10-15T08:32:30.007Z,86803.20
2023-10-15T08:35:02.101Z,86803.00
2023-10-15T08:37:31.290Z,86804.20
2023-10-15T08:40:00.233Z,86806.40
2023-10-15T08:42:44.077Z,86798.40
2023-10-15T08:45:13.434Z,86800.20
2023-10-15T08:47:45.912Z,86808.20
2023-10-15T08:50:18.782Z,86807.00
2023-10-15T08:52:50.863Z,86803.60
2023-10-15T08:55:24.884Z,86808.00
2023-10-15T08:58:00.038Z,86806.00
2023-10-15T09:00:34.103Z,86799.20
2023-10-15T09:03:03.910Z,86795.80
2023-10-15T09:05:44.395Z,86797.00
2023-10-15T09:08:16.779Z,86796.80
2023-10-15T09:10:52.021Z,86800.80
2023-10-15T09:13:31.736Z,86795.40
2023-10-15T09:16:00.774Z,86798.80
2023-10-15T09:18:30.919Z,86799.00
2023-10-15T09:21:01.783Z,86800.40
2023-10-15T09:23:39.315Z,86809.80
2023-10-15T09:26:10.433Z,86805.20
2023-10-15T09:28:40.278Z,86800.40
2023-10-15T09:31:19.268Z,86799.40
2023-10-15T09:33:48.104Z,86797.20
2023-10-15T09:36:18.009Z,86794.40
2023-10-15T09:38:48.433Z,86800.40
2023-10-15T09:41:17.498Z,86794.80
2023-10-15T09:43:47.598Z,86797.00
2023-10-15T09:46:18.403Z,86805.20
2023-10-15T09:48:48.946Z,86806.60
2023-10-15T09:51:20.264Z,86800.00
2023-10-15T09:53:52.267Z,86805.60
2023-10-15T09:56:23.912Z,86812.60
2023-10-15T09:58:55.366Z,86815.60
2023-10-15T10:01:30.673Z,86814.20
2023-10-15T10:04:25.703Z,86813.00
2023-10-15T10:07:16.646Z,86809.40
2023-10-15T10:10:11.263Z,86808.40
2023-10-15T10:12:54.146Z,86808.00
2023-10-15T10:15:56.543Z,86817.20
2023-10-15T10:18:29.394Z,86821.00
2023-10-15T10:20:58.913Z,86820.00
2023-10-15T10:23:38.804Z,86820.00
2023-10-15T10:26:18.760Z,86821.00
2023-10-15T10:28:50.089Z,86822.60
2023-10-15T10:31:21.237Z,86823.00
2023-10-15T10:33:55.721Z,86819.40
2023-10-15T10:36:30.431Z,86818.80
2023-10-15T10:39:12.546Z,86813.80
2023-10-15T10:41:45.555Z,86813.40
2023-10-15T10:44:36.016Z,86817.00
2023-10-15T10:47:26.997Z,86811.60
2023-10-15T10:50:05.822Z,86811.20
2023-10-15T10:52:40.013Z,86815.80
2023-10-15T10:55:38.996Z,86814.80
2023-10-15T10:58:28.976Z,86813.20
2023-10-15T11:00:59.976Z,86821.60
2023-10-15T11:03:33.073Z,86815.20
2023-10-15T11:06:02.642Z,86814.40
2023-10-15T11:08:31.621Z,86813.40
2023-10-15T11:11:01.649Z,86816.40
2023-10-15T11:13:34.060Z,86810.80
2023-10-15T11:16:03.641Z,86810.40
2023-10-15T11:18:34.127Z,86807.00
2023-10-15T11:21:07.387Z,86804.20
2023-10-15T11:23:36.736Z,86794.00
2023-10-15T11:26:05.929Z,86805.20
2023-10-15T11:28:36.724Z,86800.40
2023-10-15T11:31:06.297Z,86801.40
2023-10-15T11:33:36.878Z,86809.20
2023-10-15T11:36:08.337Z,86813.20
2023-10-15T11:38:39.349Z,86812.00
2023-10-15T11:41:09.535Z,86817.60
2023-10-15T11:43:38.775Z,86825.40
2023-10-15T11:46:10.417Z,86825.40
2023-10-15T11:48:40.068Z,86830.40
2023-10-15T11:51:10.778Z,86838.60
2023-10-15T11:53:45.122Z,86842.20
2023-10-15T11:56:22.406Z,86844.20
2023-10-15T11:58:51.542Z,86849.40
2023-10-15T12:01:20.545Z,86849.20
2023-10-15T12:03:51.296Z,86850.40
2023-10-15T12:06:20.371Z,86855.00
2023-10-15T12:08:51.902Z,86855.80
2023-10-15T12:11:21.783Z,86842.40
2023-10-15T12:13:53.448Z,86848.60
2023-10-15T12:16:24.827Z,86854.60
2023-10-15T12:18:53.950Z,86854.20
2023-10-15T12:24:57.051Z,86863.00
2023-10-15T12:41:23.700Z,86873.60
2023-10-15T12:43:53.066Z,86880.00
2023-10-15T12:46:22.840Z,86878.40
2023-10-15T12:48:52.076Z,86874.00
2023-10-15T12:51:21.872Z,86877.00
2023-10-15T12:53:51.176Z,86880.40
2023-10-15T12:56:20.248Z,86884.00
2023-10-15T12:58:49.484Z,86884.00
2023-10-15T13:01:23.057Z,86886.40
2023-10-15T13:03:55.390Z,86885.20
2023-10-15T13:06:24.665Z,86881.20
2023-10-15T13:08:54.168Z,86883.80
2023-10-15T13:11:23.335Z,86885.20
2023-10-15T13:13:52.567Z,86895.20
2023-10-15T13:25:08.524Z,86895.80
2023-10-15T13:28:50.259Z,86897.60
2023-10-15T13:31:51.367Z,86902.20
2023-10-15T13:34:32.892Z,86901.00
2023-10-15T13:37:55.193Z,86901.60
2023-10-15T13:41:16.545Z,86899.00
2023-10-15T13:43:57.814Z,86895.20
2023-10-15T13:46:33.937Z,86895.40
2023-10-15T13:49:07.151Z,86893.60
2023-10-15T13:51:50.189Z,86892.00
2023-10-15T13:54:31.745Z,86897.00
2023-10-15T13:57:17.812Z,86900.20
2023-10-15T14:00:37.271Z,86899.00
2023-10-15T14:03:09.806Z,86898.40
2023-10-15T14:05:43.005Z,86898.60
2023-10-15T14:08:12.887Z,86902.80
2023-10-15T14:10:42.589Z,86901.40
2023-10-15T14:13:24.220Z,86908.20
2023-10-15T14:15:53.867Z,86903.80
2023-10-15T14:19:03.467Z,86904.60
2023-10-15T14:21:38.102Z,86907.80
2023-10-15T14:24:14.303Z,86916.20
2023-10-15T14:26:46.966Z,86917.00
2023-10-15T14:29:16.368Z,86923.80
2023-10-15T14:31:46.180Z,86925.00
2023-10-15T14:34:41.748Z,86923.80
2023-10-15T14:37:29.036Z,86920.80
2023-10-15T14:39:58.649Z,86924.20
2023-10-15T14:42:27.646Z,86921.20
2023-10-15T14:45:04.171Z,86919.00
2023-10-15T14:47:39.256Z,86919.80
2023-10-15T14:50:14.646Z,86916.60
2023-10-15T14:52:59.264Z,86918.00
2023-10-15T14:55:29.687Z,86920.20
2023-10-15T14:57:59.172Z,86923.00
2023-10-15T15:03:55.253Z,86916.80
2023-10-15T15:06:30.773Z,86930.00
2023-10-15T15:09:03.879Z,86925.60
2023-10-15T15:11:38.402Z,86937.40
2023-10-15T15:14:13.123Z,86939.40
2023-10-15T15:16:51.764Z,86955.40
2023-10-15T15:19:35.024Z,86962.40
2023-10-15T15:22:19.359Z,86966.20
2023-10-15T15:25:14.177Z,86967.60
2023-10-15T15:27:47.641Z,86968.00
2023-10-15T15:30:34.166Z,86959.60
2023-10-15T15:33:14.937Z,86962.40
2023-10-15T15:36:28.306Z,86961.00
2023-10-15T15:39:01.718Z,86958.00
2023-10-15T15:41:41.172Z,86963.40
2023-10-15T15:44:15.961Z,86965.80
2023-10-15T15:46:49.520Z,86967.20
2023-10-15T15:49:30.151Z,86970.20
2023-10-15T15:52:09.502Z,86979.20
2023-10-15T15:55:01.990Z,86982.80
2023-10-15T15:57:55.433Z,86982.80
2023-10-15T16:00:40.201Z,86980.00
2023-10-15T16:03:15.700Z,86983.60
2023-10-15T16:06:03.100Z,86991.80
2023-10-15T16:08:42.137Z,86994.80
2023-10-15T16:11:13.946Z,86982.80
2023-10-15T16:13:49.646Z,86986.20
2023-10-15T16:16:25.012Z,86991.20
2023-10-15T16:18:59.178Z,86993.80
2023-10-15T16:21:35.650Z,87004.40
2023-10-15T16:24:15.182Z,87007.60
2023-10-15T16:26:45.192Z,87010.40
2023-10-15T16:29:23.263Z,87012.20
2023-10-15T16:32:05.604Z,87015.60
2023-10-15T16:34:45.775Z,87019.00
2023-10-15T16:37:18.481Z,87019.80
2023-10-15T16:40:00.478Z,87025.60
2023-10-15T16:42:44.818Z,87028.00
2023-10-15T16:45:20.594Z,87025.20
2023-10-15T16:48:19.679Z,87031.40
2023-10-15T16:51:36.742Z,87029.20
2023-10-15T16:54:06.575Z,87028.80
2023-10-15T16:57:06.908Z,87034.00
2023-10-15T16:59:49.012Z,87046.00
2023-10-15T17:02:33.410Z,87041.80
2023-10-15T17:05:12.008Z,87043.20
2023-10-15T17:07:44.218Z,87039.60
2023-10-15T17:10:22.713Z,87032.80
2023-10-15T17:13:08.570Z,87037.60
2023-10-15T17:15:58.766Z,87034.60
2023-10-15T17:18:47.266Z,87033.00
2023-10-15T17:21:24.462Z,87034.60
2023-10-15T17:24:05.307Z,87039.80
2023-10-15T17:26:51.473Z,87040.60
2023-10-15T17:29:29.479Z,87036.00
2023-10-15T17:32:06.044Z,87037.20
2023-10-15T17:34:40.881Z,87036.40
2023-10-15T17:37:26.032Z,87039.40
2023-10-15T17:40:03.743Z,87046.40
2023-10-15T17:42:38.353Z,87046.00
2023-10-15T17:45:21.808Z,87048.00
2023-10-15T17:47:52.369Z,87048.80
2023-10-15T17:50:28.023Z,87041.00
2023-10-15T17:52:58.055Z,87039.80
2023-10-15T17:55:30.265Z,87038.20
2023-10-15T17:57:59.591Z,87021.60
2023-10-15T18:00:29.970Z,87028.40
2023-10-15T18:03:02.755Z,87030.40
2023-10-15T18:05:46.819Z,87025.00
2023-10-15T18:08:23.655Z,87018.60
2023-10-15T18:10:55.752Z,87024.60
2023-10-15T18:13:28.857Z,87031.20
2023-10-15T18:15:58.224Z,87028.20
2023-10-15T18:18:30.262Z,87027.80
2023-10-15T18:21:02.274Z,87030.40
2023-10-15T18:23:47.005Z,87026.00
2023-10-15T18:26:25.185Z,87020.80
2023-10-15T18:28:58.153Z,87023.80
2023-10-15T18:31:37.378Z,87026.20
2023-10-15T18:34:07.153Z,87026.60
2023-10-15T18:36:39.860Z,87026.80
2023-10-15T18:39:26.118Z,87021.40
2023-10-15T18:41:59.250Z,87020.40
2023-10-15T18:44:37.400Z,87019.00
2023-10-15T18:47:19.676Z,87024.60
2023-10-15T18:49:52.236Z,87019.00
2023-10-15T18:52:34.120Z,87013.60
2023-10-15T18:55:15.486Z,87012.40
2023-10-15T18:57:46.504Z,87013.60
2023-10-15T19:00:24.005Z,87009.60
2023-10-15T19:02:56.454Z,87013.80
2023-10-15T19:05:29.999Z,87007.80
2023-10-15T19:08:03.670Z,87005.80
2023-10-15T19:10:33.155Z,87001.20
2023-10-15T19:13:16.277Z,87002.60
2023-10-15T19:16:22.469Z,86998.60
2023-10-15T19:18:54.935Z,87009.00
2023-10-15T19:21:31.168Z,87000.00
2023-10-15T19:24:00.817Z,87006.00
2023-10-15T19:26:32.676Z,87006.20
2023-10-15T19:29:06.664Z,87006.40
2023-10-15T19:31:41.823Z,87004.80
2023-10-15T19:34:28.368Z,86998.80
2023-10-15T19:37:28.006Z,87000.20
2023-10-15T19:39:57.838Z,86999.80
2023-10-15T19:42:33.398Z,86995.00
2023-10-15T19:45:19.037Z,86995.00
2023-10-15T19:47:54.141Z,86992.60
2023-10-15T19:50:53.309Z,87000.40
2023-10-15T19:56:19.885Z,86993.20
2023-10-15T19:58:51.805Z,86989.80
2023-10-15T20:01:21.361Z,86991.40
2023-10-15T20:04:07.297Z,86991.00
2023-10-15T20:06:57.917Z,86995.60
2023-10-15T20:09:41.652Z,86998.00
2023-10-15T20:12:17.107Z,86992.20
2023-10-15T20:14:55.338Z,86997.40
2023-10-15T20:17:30.590Z,87003.00
2023-10-15T20:20:20.653Z,86999.00
2023-10-15T20:22:58.251Z,87002.40
2023-10-15T20:25:27.498Z,87007.40
2023-10-15T20:28:09.324Z,87006.80
2023-10-15T20:31:04.300Z,87004.00
2023-10-15T20:33:59.373Z,87002.80
2023-10-15T20:36:32.718Z,87011.00
2023-10-15T20:39:08.185Z,87003.80
2023-10-15T20:41:44.309Z,87000.80
2023-10-15T20:44:14.282Z,87000.80
2023-10-15T20:46:43.649Z,86993.40
2023-10-15T20:49:19.864Z,86999.20
2023-10-15T20:51:52.404Z,86996.20
2023-10-15T20:54:28.648Z,86994.80
2023-10-15T20:56:58.022Z,86991.80
2023-10-15T20:59:28.117Z,86992.80
2023-10-15T21:01:58.294Z,86989.80
2023-10-15T21:04:29.741Z,86995.80
2023-10-15T21:07:02.041Z,86998.00
2023-10-15T21:09:34.528Z,86990.00
2023-10-15T21:12:12.861Z,86991.20
2023-10-15T21:14:45.896Z,86996.00
2023-10-15T21:17:23.727Z,86997.20
2023-10-15T21:20:01.620Z,86994.60
2023-10-15T21:23:12.395Z,87003.00
2023-10-15T21:25:55.501Z,86999.60
2023-10-15T21:28:44.288Z,87001.60
2023-10-15T21:31:13.629Z,87002.20
2023-10-15T21:33:51.612Z,87009.40
2023-10-15T21:36:27.187Z,87006.60
2023-10-15T21:39:17.176Z,87008.20
2023-10-15T21:42:39.906Z,87004.20
2023-10-15T21:45:26.704Z,87010.40
2023-10-15T21:47:58.603Z,87009.00
2023-10-15T21:50:30.865Z,87011.40
2023-10-15T21:53:03.387Z,87009.60
2023-10-15T21:55:34.085Z,87005.80
2023-10-15T21:58:03.463Z,87002.00
2023-10-15T22:00:38.575Z,87005.60
2023-10-15T22:03:11.700Z,87006.20
2023-10-15T22:05:41.485Z,87017.20
2023-10-15T22:08:14.160Z,87012.80
2023-10-15T22:10:43.573Z,87015.20
2023-10-15T22:13:20.694Z,87020.00
2023-10-15T22:15:53.929Z,87016.40
2023-10-15T22:18:26.964Z,87017.20
2023-10-15T22:20:57.013Z,87015.80
2023-10-15T22:23:28.164Z,87013.00
2023-10-15T22:26:03.388Z,87014.00
2023-10-15T22:28:33.039Z,87010.60
2023-10-15T22:31:09.734Z,87014.20
2023-10-15T22:33:42.458Z,87018.40
2023-10-15T22:36:18.015Z,87012.20
2023-10-15T22:38:47.285Z,87006.00
2023-10-15T22:41:17.006Z,87009.60
2023-10-15T22:43:46.637Z,87007.00
2023-10-15T22:46:16.409Z,87006.60
2023-10-15T22:48:45.811Z,86999.40
2023-10-15T22:51:19.235Z,86999.00
2023-10-15T22:53:49.140Z,86997.60
2023-10-15T22:56:18.248Z,87003.40
2023-10-15T22:58:48.009Z,86996.60
2023-10-15T23:01:25.970Z,87002.60
2023-10-15T23:04:02.953Z,87009.40
2023-10-15T23:06:33.443Z,87008.00
2023-10-15T23:09:06.101Z,87009.80
2023-10-15T23:11:37.224Z,87003.60
2023-10-15T23:14:14.903Z,87008.00
2023-10-15T23:16:47.037Z,87009.00
2023-10-15T23:19:45.995Z,87010.20
2023-10-15T23:23:04.104Z,87004.20
2023-10-15T23:25:32.864Z,87025.40
2023-10-15T23:32:05.566Z,87019.20
2023-10-15T23:38:39.864Z,87023.00
2023-10-15T23:41:32.152Z,87022.20
2023-10-15T23:44:33.895Z,87021.80
2023-10-15T23:47:28.425Z,87025.00
2023-10-15T23:50:01.615Z,87025.40
2023-10-15T23:52:44.367Z,87025.00
2023-10-15T23:55:18.780Z,87020.60
2023-10-15T23:57:51.419Z,87018.80
